Time;durP1;ratioP1;P1;durP2;ratioP2;P2;SDS_P1;SDS_P2;PMS_P1;PMS_P2;Temp;Humidity;BMP_temperature;BMP_pressure;BME280_temperature;BME280_humidity;BME280_pressure;Samples;Min_cycle;Max_cycle;Signal;HPM_P1;HPM_P2
2023/10/12 00:00:24;;;;;;;;;;;;;;;13.43;100.00;98399.92;1820;303;185833;-61
2023/10/12 00:03:12;;;;;;;;;;;;;;;13.42;100.00;98402.98;1775;300;116308;-61
2023/10/12 00:05:45;;;;;;;;;;;;;;;13.41;100.00;98407.55;1819;304;115612;-61
2023/10/12 00:08:33;;;;;;;;;;;;;;;13.41;100.00;98408.59;1775;304;185342;-61
2023/10/12 00:11:06;;;;;;;;;;;;;;;13.41;100.00;98403.33;1814;302;115628;-61
2023/10/12 00:13:41;;;;;;;;;;;;;;;13.43;100.00;98402.98;1760;309;185440;-61
2023/10/12 00:16:10;;;;;;;;;;;;;;;13.45;100.00;98404.46;1776;302;115723;-61
2023/10/12 00:18:38;;;;;;;;;;;;;;;13.46;100.00;98404.77;1837;303;184950;-61
2023/10/12 00:21:15;;;;;;;;;;;;;;;13.48;100.00;98401.27;1772;309;115808;-61
2023/10/12 00:23:47;;;;;;;;;;;;;;;13.46;100.00;98398.91;1766;303;116251;-61
2023/10/12 00:26:16;;;;;;;;;;;;;;;13.46;100.00;98402.98;1793;304;184354;-61
2023/10/12 00:28:45;;;;;;;;;;;;;;;13.46;100.00;98397.89;1837;304;115878;-61
2023/10/12 00:31:19;;;;;;;;;;;;;;;13.44;100.00;98398.58;1784;312;186639;-61
2023/10/12 00:33:50;;;;;;;;;;;;;;;13.45;100.00;98401.98;1808;300;116279;-61
2023/10/12 00:36:22;;;;;;;;;;;;;;;13.49;100.00;98406.76;1817;303;184900;-61
2023/10/12 00:38:59;;;;;;;;;;;;;;;13.48;100.00;98398.95;1787;300;115763;-61
2023/10/12 00:41:29;;;;;;;;;;;;;;;13.50;100.00;98401.95;1751;306;116091;-61
2023/10/12 00:49:16;;;;;;;;;;;;;;;13.55;100.00;98397.14;1768;309;185091;-61
2023/10/12 00:51:51;;;;;;;;;;;;;;;13.51;100.00;98399.98;1783;308;115724;-61
2023/10/12 00:57:08;;;;;;;;;;;;;;;13.44;100.00;98404.02;1810;301;115610;-61
2023/10/12 00:59:38;;;;;;;;;;;;;;;13.42;100.00;98402.27;1785;310;115844;-62
2023/10/12 01:02:11;;;;;;;;;;;;;;;13.40;100.00;98406.38;1759;306;185567;-61
2023/10/12 01:04:44;;;;;;;;;;;;;;;13.38;100.00;98406.25;1799;303;115599;-61
2023/10/12 01:07:19;;;;;;;;;;;;;;;13.35;100.00;98407.18;1786;307;184793;-61
2023/10/12 01:09:52;;;;;;;;;;;;;;;13.32;100.00;98407.45;1765;306;115806;-62
2023/10/12 01:12:29;;;;;;;;;;;;;;;13.31;100.00;98406.81;1804;304;186028;-61
2023/10/12 01:15:04;;;;;;;;;;;;;;;13.35;100.00;98403.13;1787;304;116135;-61
2023/10/12 01:17:35;;;;;;;;;;;;;;;13.23;100.00;98401.98;1788;305;115899;-61
2023/10/12 01:20:26;;;;;;;;;;;;;;;13.14;100.00;98402.80;1756;357;184770;-61
2023/10/12 01:22:57;;;;;;;;;;;;;;;13.11;100.00;98403.39;1797;308;115678;-61
2023/10/12 01:25:29;;;;;;;;;;;;;;;13.05;100.00;98404.58;1790;304;184678;-61
2023/10/12 01:28:05;;;;;;;;;;;;;;;13.02;100.00;98400.83;1803;304;115607;-60
2023/10/12 01:30:36;;;;;;;;;;;;;;;13.00;100.00;98390.13;1800;305;185246;-61
2023/10/12 01:33:06;;;;;;;;;;;;;;;12.96;100.00;98402.00;1779;310;115741;-61
2023/10/12 01:35:39;;;;;;;;;;;;;;;12.92;100.00;98404.91;1767;307;115840;-61
2023/10/12 01:38:08;;;;;;;;;;;;;;;12.90;100.00;98395.68;1798;307;184474;-61
2023/10/12 01:43:17;;;;;;;;;;;;;;;12.87;100.00;98383.84;1767;303;184648;-61
2023/10/12 01:46:29;;;;;;;;;;;;;;;12.85;100.00;98375.80;1814;303;115715;-61
2023/10/12 01:48:38;;;;;;;;;;;;;;;12.81;100.00;98386.95;1742;308;184824;-63
2023/10/12 01:51:16;;;;;;;;;;;;;;;12.80;100.00;98388.45;1809;309;115751;-63
2023/10/12 01:53:45;;;;;;;;;;;;;;;12.79;100.00;98378.02;1752;311;115705;-63
2023/10/12 01:56:15;;;;;;;;;;;;;;;12.77;100.00;98363.66;1744;309;185504;-62
2023/10/12 01:58:44;;;;;;;;;;;;;;;12.77;100.00;98354.42;1771;304;116496;-63
2023/10/12 02:01:18;;;;;;;;;;;;;;;12.74;100.00;98339.04;1804;306;185543;-63
2023/10/12 02:03:54;;;;;;;;;;;;;;;12.73;100.00;98344.19;1779;307;115867;-63
2023/10/12 02:06:28;;;;;;;;;;;;;;;12.73;100.00;98341.23;1754;306;184835;-62
2023/10/12 02:09:10;;;;;;;;;;;;;;;12.73;100.00;98334.95;1794;309;116633;-63
2023/10/12 02:14:13;;;;;;;;;;;;;;;12.73;100.00;98327.94;1796;309;184616;-63
2023/10/12 02:16:53;;;;;;;;;;;;;;;12.71;100.00;98307.88;1828;299;115688;-63
2023/10/12 02:19:37;;;;;;;;;;;;;;;12.66;100.00;98299.75;1770;302;486782;-63
2023/10/12 02:22:09;;;;;;;;;;;;;;;12.61;100.00;98352.35;1828;305;115654;-63
2023/10/12 02:24:43;;;;;;;;;;;;;;;12.59;100.00;98366.93;1802;308;184877;-63
2023/10/12 02:27:13;;;;;;;;;;;;;;;12.57;100.00;98363.94;1801;299;116298;-63
2023/10/12 02:29:48;;;;;;;;;;;;;;;12.54;100.00;98370.48;1799;307;115819;-63
2023/10/12 02:32:22;;;;;;;;;;;;;;;12.57;100.00;98372.88;1780;309;185740;-63
2023/10/12 02:35:04;;;;;;;;;;;;;;;12.56;100.00;98361.26;1760;300;115764;-63
2023/10/12 02:37:35;;;;;;;;;;;;;;;12.57;100.00;98366.59;1789;304;184806;-63
2023/10/12 02:40:04;;;;;;;;;;;;;;;12.62;100.00;98375.08;1784;302;115747;-63
2023/10/12 02:42:39;;;;;;;;;;;;;;;12.69;100.00;98389.17;1805;304;185173;-62
2023/10/12 02:45:15;;;;;;;;;;;;;;;12.72;100.00;98384.66;1767;304;115745;-63
2023/10/12 02:47:45;;;;;;;;;;;;;;;12.69;100.00;98382.39;1785;308;115842;-63
2023/10/12 02:50:20;;;;;;;;;;;;;;;12.66;100.00;98370.77;1785;300;184570;-62
2023/10/12 02:52:52;;;;;;;;;;;;;;;12.64;100.00;98364.64;1780;304;115805;-63
2023/10/12 02:57:54;;;;;;;;;;;;;;;12.60;100.00;98367.56;1780;304;115675;-63
2023/10/12 03:00:34;;;;;;;;;;;;;;;12.58;100.00;98354.98;1781;300;185066;-63
2023/10/12 03:03:07;;;;;;;;;;;;;;;12.57;100.00;98372.70;1797;304;116177;-63
2023/10/12 03:05:49;;;;;;;;;;;;;;;12.58;100.00;98387.16;1782;306;115622;-63
2023/10/12 03:08:22;;;;;;;;;;;;;;;12.57;100.00;98379.53;1781;308;115921;-63
2023/10/12 03:13:35;;;;;;;;;;;;;;;12.46;100.00;98392.58;1783;305;184445;-64
2023/10/12 03:16:19;;;;;;;;;;;;;;;12.38;100.00;98414.11;1838;304;115661;-63
2023/10/12 03:18:57;;;;;;;;;;;;;;;12.25;100.00;98418.23;1825;305;184658;-63
2023/10/12 03:21:33;;;;;;;;;;;;;;;12.09;100.00;98415.79;1795;304;115723;-63
2023/10/12 03:24:04;;;;;;;;;;;;;;;11.91;100.00;98412.75;1812;305;185050;-63
2023/10/12 03:26:34;;;;;;;;;;;;;;;11.80;100.00;98420.31;1763;308;115984;-63
2023/10/12 03:29:10;;;;;;;;;;;;;;;11.71;100.00;98419.79;1783;358;115722;-63
2023/10/12 03:36:59;;;;;;;;;;;;;;;11.51;100.00;98397.98;1793;304;184755;-63
2023/10/12 03:39:29;;;;;;;;;;;;;;;11.50;100.00;98401.73;1780;304;115685;-63
2023/10/12 03:52:34;;;;;;;;;;;;;;;11.47;100.00;98417.46;1739;311;116158;-63
2023/10/12 04:05:34;;;;;;;;;;;;;;;11.10;100.00;98411.39;1811;304;115790;-62
2023/10/12 04:21:33;;;;;;;;;;;;;;;10.42;100.00;98442.96;1794;308;115819;-62
2023/10/12 04:29:32;;;;;;;;;;;;;;;10.34;100.00;98447.20;1782;285;116172;-62
2023/10/12 04:32:11;;;;;;;;;;;;;;;10.25;100.00;98454.23;1754;1313;184810;-62
2023/10/12 04:34:46;;;;;;;;;;;;;;;10.17;100.00;98463.93;1806;302;116136;-62
2023/10/12 04:37:22;;;;;;;;;;;;;;;10.14;100.00;98462.40;1761;305;184677;-62
2023/10/12 04:39:56;;;;;;;;;;;;;;;10.14;100.00;98461.03;1792;300;116108;-61
2023/10/12 04:42:33;;;;;;;;;;;;;;;10.16;100.00;98459.33;1772;304;184948;-61
2023/10/12 04:47:35;;;;;;;;;;;;;;;10.19;100.00;98458.45;1751;309;116106;-61
2023/10/12 04:50:07;;;;;;;;;;;;;;;10.16;100.00;98453.26;1756;308;184579;-61
2023/10/12 04:52:38;;;;;;;;;;;;;;;10.12;100.00;98470.22;1772;307;116323;-61
2023/10/12 04:55:07;;;;;;;;;;;;;;;10.04;100.00;98476.73;1790;304;186898;-61
2023/10/12 04:57:39;;;;;;;;;;;;;;;10.00;100.00;98474.27;1782;308;115664;-61
2023/10/12 05:00:34;;;;;;;;;;;;;;;9.97;100.00;98471.16;1763;309;184238;-61
2023/10/12 05:03:22;;;;;;;;;;;;;;;9.93;100.00;98475.42;1783;305;115619;-63
2023/10/12 05:06:03;;;;;;;;;;;;;;;9.92;100.00;98484.35;1808;300;116564;-63
2023/10/12 05:08:33;;;;;;;;;;;;;;;9.91;100.00;98474.84;1744;309;116053;-63
2023/10/12 05:11:06;;;;;;;;;;;;;;;9.93;100.00;98479.91;1764;304;115626;-63
2023/10/12 05:13:34;;;;;;;;;;;;;;;9.95;100.00;98483.66;1764;305;184535;-63
2023/10/12 05:16:06;;;;;;;;;;;;;;;9.98;100.00;98479.27;1774;304;116174;-62
2023/10/12 05:18:37;;;;;;;;;;;;;;;10.01;100.00;98490.70;1754;307;184679;-63
2023/10/12 05:21:08;;;;;;;;;;;;;;;10.02;100.00;98492.69;1739;304;115632;-61
2023/10/12 05:23:41;;;;;;;;;;;;;;;10.02;100.00;98509.77;1787;304;116272;-61
2023/10/12 05:26:09;;;;;;;;;;;;;;;10.00;100.00;98516.98;1750;305;184492;-63
2023/10/12 05:28:47;;;;;;;;;;;;;;;10.02;100.00;98512.71;1805;308;116064;-67
2023/10/12 05:31:20;;;;;;;;;;;;;;;10.02;100.00;98510.94;1677;313;184686;-63
2023/10/12 05:34:25;;;;;;;;;;;;;;;10.03;100.00;98509.70;1702;314;117000;-67
2023/10/12 05:36:49;;;;;;;;;;;;;;;10.06;100.00;98516.46;1669;1316;184863;-63
2023/10/12 05:39:18;;;;;;;;;;;;;;;10.08;100.00;98526.26;1669;1314;115840;-66
2023/10/12 05:41:47;;;;;;;;;;;;;;;10.13;100.00;98529.62;1696;1308;116002;-67
2023/10/12 05:44:23;;;;;;;;;;;;;;;10.14;100.00;98527.63;1705;305;184693;-68
2023/10/12 05:46:58;;;;;;;;;;;;;;;10.14;100.00;98531.26;1720;311;116013;-70
2023/10/12 05:49:33;;;;;;;;;;;;;;;10.18;100.00;98538.16;1795;308;184935;-71
2023/10/12 05:52:05;;;;;;;;;;;;;;;10.22;100.00;98542.60;1784;303;115710;-69
2023/10/12 05:54:34;;;;;;;;;;;;;;;10.27;100.00;98543.14;1750;307;185271;-67
2023/10/12 05:57:06;;;;;;;;;;;;;;;10.28;100.00;98548.12;1767;304;115679;-67
2023/10/12 05:59:38;;;;;;;;;;;;;;;10.30;100.00;98553.41;1775;303;115645;-64
2023/10/12 06:02:08;;;;;;;;;;;;;;;10.31;100.00;98554.89;1753;308;184593;-67
2023/10/12 06:04:36;;;;;;;;;;;;;;;10.34;100.00;98562.55;1794;308;115961;-66
2023/10/12 06:07:05;;;;;;;;;;;;;;;10.36;100.00;98568.84;1780;304;184683;-61
2023/10/12 06:09:37;;;;;;;;;;;;;;;10.39;100.00;98578.89;1782;304;115616;-68
2023/10/12 06:12:06;;;;;;;;;;;;;;;10.45;100.00;98573.30;1808;303;185880;-67
2023/10/12 06:14:35;;;;;;;;;;;;;;;10.51;100.00;98580.03;1753;305;116006;-66
2023/10/12 06:17:07;;;;;;;;;;;;;;;10.54;100.00;98581.77;1779;300;116435;-66
2023/10/12 06:19:35;;;;;;;;;;;;;;;10.55;100.00;98587.80;1782;304;185169;-66
2023/10/12 06:22:32;;;;;;;;;;;;;;;10.56;100.00;98589.95;1804;304;115692;-68
2023/10/12 06:24:59;;;;;;;;;;;;;;;10.62;100.00;98602.80;1803;304;184882;-66
2023/10/12 06:27:30;;;;;;;;;;;;;;;10.66;100.00;98604.49;1802;307;115754;-68
2023/10/12 06:30:06;;;;;;;;;;;;;;;10.66;100.00;98609.66;1801;307;185540;-70
2023/10/12 06:32:36;;;;;;;;;;;;;;;10.69;100.00;98612.60;1705;309;116380;-69
2023/10/12 06:40:37;;;;;;;;;;;;;;;10.97;100.00;98615.65;1658;307;115610;-63
2023/10/12 06:45:51;;;;;;;;;;;;;;;11.25;100.00;98630.66;1694;307;115836;-66
2023/10/12 06:48:43;;;;;;;;;;;;;;;11.47;100.00;98627.12;1728;306;185654;-66
2023/10/12 06:51:13;;;;;;;;;;;;;;;11.60;100.00;98628.10;1785;368;115806;-66
2023/10/12 06:53:52;;;;;;;;;;;;;;;11.72;100.00;98633.89;1768;304;116721;-66
2023/10/12 07:04:27;;;;;;;;;;;;;;;12.03;100.00;98655.85;1793;316;115772;-66
2023/10/12 07:06:56;;;;;;;;;;;;;;;12.08;100.00;98659.85;1749;302;184686;-66
2023/10/12 07:12:07;;;;;;;;;;;;;;;12.11;100.00;98663.83;1806;303;185875;-66
2023/10/12 07:14:43;;;;;;;;;;;;;;;12.07;100.00;98674.89;1746;321;116131;-70
2023/10/12 07:17:11;;;;;;;;;;;;;;;12.11;100.00;98674.16;1795;308;115753;-67
2023/10/12 07:19:42;;;;;;;;;;;;;;;12.25;100.00;98674.38;1797;308;184786;-68
2023/10/12 07:22:15;;;;;;;;;;;;;;;12.49;100.00;98671.42;1778;305;115766;-63
2023/10/12 07:24:53;;;;;;;;;;;;;;;12.49;100.00;98671.95;1771;308;184714;-72
2023/10/12 07:27:23;;;;;;;;;;;;;;;12.49;100.00;98678.95;1789;304;116380;-69
2023/10/12 07:30:08;;;;;;;;;;;;;;;12.52;100.00;98689.55;1814;303;115687;-68
2023/10/12 07:32:41;;;;;;;;;;;;;;;12.64;100.00;98694.11;1766;309;115599;-73
2023/10/12 07:35:17;;;;;;;;;;;;;;;12.86;100.00;98690.94;1808;307;115604;-66
2023/10/12 07:37:46;;;;;;;;;;;;;;;13.34;100.00;98685.60;1792;303;184623;-64
2023/10/12 07:40:19;;;;;;;;;;;;;;;13.96;100.00;98685.16;1789;303;115628;-65
2023/10/12 07:42:47;;;;;;;;;;;;;;;14.74;100.00;98691.71;1820;304;185025;-62
2023/10/12 07:45:17;;;;;;;;;;;;;;;15.12;100.00;98698.16;1788;304;116172;-64
2023/10/12 07:47:58;;;;;;;;;;;;;;;15.27;100.00;98698.44;1809;307;115686;-63
2023/10/12 07:50:30;;;;;;;;;;;;;;;15.30;100.00;98711.20;1777;309;115595;-67
2023/10/12 07:56:00;;;;;;;;;;;;;;;15.11;100.00;98716.14;1688;317;184867;-67
2023/10/12 07:58:31;;;;;;;;;;;;;;;15.34;100.00;98715.10;1686;304;115734;-67
2023/10/12 08:01:26;;;;;;;;;;;;;;;15.74;100.00;98721.92;1663;307;186105;-68
2023/10/12 08:03:51;;;;;;;;;;;;;;;16.19;100.00;98718.27;1704;1311;115926;-68
2023/10/12 08:09:10;;;;;;;;;;;;;;;16.90;100.00;98713.99;1689;312;115835;-70
2023/10/12 08:11:39;;;;;;;;;;;;;;;17.10;100.00;98724.48;1723;304;115619;-71
2023/10/12 08:17:24;;;;;;;;;;;;;;;18.11;100.00;98726.69;1745;304;115834;-65
2023/10/12 08:19:55;;;;;;;;;;;;;;;19.02;100.00;98727.23;1718;307;184741;-60
2023/10/12 08:22:29;;;;;;;;;;;;;;;20.38;100.00;98730.48;1713;1312;116284;-63
2023/10/12 08:25:04;;;;;;;;;;;;;;;21.74;100.00;98735.41;1688;306;185393;-61
2023/10/12 08:27:52;;;;;;;;;;;;;;;21.91;100.00;98733.41;1716;325;115932;-62
2023/10/12 08:30:24;;;;;;;;;;;;;;;21.00;99.89;98743.55;1718;307;185123;-63
2023/10/12 08:32:57;;;;;;;;;;;;;;;21.49;100.00;98746.10;1733;303;115578;-63
2023/10/12 08:35:39;;;;;;;;;;;;;;;21.69;98.89;98746.02;1711;303;115665;-61
2023/10/12 08:38:11;;;;;;;;;;;;;;;21.05;97.10;98745.43;1684;307;185699;-60
2023/10/12 08:41:18;;;;;;;;;;;;;;;20.31;96.69;98743.80;1701;304;115733;-61
2023/10/12 08:43:59;;;;;;;;;;;;;;;19.74;95.09;98743.52;1696;303;185704;-64
2023/10/12 08:49:34;;;;;;;;;;;;;;;19.38;93.86;98745.05;1672;310;184756;-62
2023/10/12 08:52:18;;;;;;;;;;;;;;;19.82;94.23;98745.10;1679;305;116181;-63
2023/10/12 08:54:51;;;;;;;;;;;;;;;21.32;95.20;98753.56;1650;308;184545;-66
2023/10/12 08:57:38;;;;;;;;;;;;;;;22.02;92.30;98758.67;1721;307;116225;-65
2023/10/12 09:00:39;;;;;;;;;;;;;;;21.88;89.82;98765.92;1715;302;184803;-66
2023/10/12 09:05:51;;;;;;;;;;;;;;;21.65;88.09;98765.98;1716;303;116056;-66
2023/10/12 09:10:51;;;;;;;;;;;;;;;21.22;85.47;98772.34;1690;308;116059;-66
2023/10/12 09:13:20;;;;;;;;;;;;;;;21.20;84.88;98775.92;1723;1308;186173;-66
2023/10/12 09:15:56;;;;;;;;;;;;;;;20.44;82.12;98773.75;1715;1315;115654;-65
2023/10/12 09:18:32;;;;;;;;;;;;;;;19.67;81.77;98776.80;1720;308;185971;-66
2023/10/12 09:31:48;;;;;;;;;;;;;;;19.88;79.46;98767.83;1696;305;185413;-65
2023/10/12 09:36:44;;;;;;;;;;;;;;;20.91;77.64;98765.02;1702;316;185005;-63
2023/10/12 09:39:14;;;;;;;;;;;;;;;20.54;76.17;98772.20;1710;308;115801;-66
2023/10/12 09:41:54;;;;;;;;;;;;;;;20.31;76.21;98777.06;1753;307;115921;-65
2023/10/12 09:44:26;;;;;;;;;;;;;;;19.96;75.11;98772.68;1748;308;184896;-66
2023/10/12 09:46:55;;;;;;;;;;;;;;;19.54;74.82;98772.30;1772;1311;116236;-65
2023/10/12 09:49:27;;;;;;;;;;;;;;;19.56;74.48;98772.30;1751;304;184628;-65
2023/10/12 09:51:59;;;;;;;;;;;;;;;19.56;73.94;98767.86;1737;309;115695;-65
2023/10/12 09:54:45;;;;;;;;;;;;;;;19.67;73.41;98771.50;1754;304;184770;-64
2023/10/12 09:57:23;;;;;;;;;;;;;;;20.15;73.56;98784.33;1724;309;115802;-65
2023/10/12 09:59:53;;;;;;;;;;;;;;;20.41;71.32;98779.09;1765;303;115589;-64
2023/10/12 10:02:28;;;;;;;;;;;;;;;20.09;70.99;98778.76;1771;308;185411;-62
2023/10/12 10:05:01;;;;;;;;;;;;;;;19.84;70.65;98784.07;1766;1303;115903;-64
2023/10/12 10:07:36;;;;;;;;;;;;;;;19.44;69.56;98781.22;1796;304;185772;-63
2023/10/12 10:10:17;;;;;;;;;;;;;;;19.40;70.01;98777.91;1748;301;116103;-63
2023/10/12 10:12:45;;;;;;;;;;;;;;;20.08;69.23;98786.80;1828;308;184479;-66
2023/10/12 10:15:20;;;;;;;;;;;;;;;19.79;68.50;98793.28;1768;304;115777;-64
2023/10/12 10:17:52;;;;;;;;;;;;;;;19.12;67.97;98791.90;1759;305;338127;-64
2023/10/12 10:23:01;;;;;;;;;;;;;;;18.13;67.67;98792.89;1712;1306;115723;-63
2023/10/12 10:25:42;;;;;;;;;;;;;;;18.02;67.67;98801.14;1680;1312;184738;-62
2023/10/12 10:28:24;;;;;;;;;;;;;;;18.43;68.26;98803.14;1685;1298;115926;-65
2023/10/12 10:30:56;;;;;;;;;;;;;;;19.19;67.76;98807.27;1681;304;185461;-67
2023/10/12 10:33:26;;;;;;;;;;;;;;;20.35;68.23;98809.72;1698;1307;116528;-76
2023/10/12 10:36:00;;;;;;;;;;;;;;;22.51;69.43;98812.76;1681;307;115854;-66
2023/10/12 10:38:32;;;;;;;;;;;;;;;24.96;68.80;98806.77;1716;309;115827;-63
2023/10/12 10:41:07;;;;;;;;;;;;;;;26.16;67.68;98805.44;1805;302;116745;-69
2023/10/12 10:43:37;;;;;;;;;;;;;;;26.88;66.33;98809.50;1799;302;185443;-69
2023/10/12 10:46:13;;;;;;;;;;;;;;;27.35;65.17;98809.13;1736;309;116295;-61
2023/10/12 10:48:49;;;;;;;;;;;;;;;28.31;63.77;98811.60;1698;305;185571;-62
2023/10/12 10:51:27;;;;;;;;;;;;;;;28.25;61.31;98811.65;1749;305;115815;-62
2023/10/12 10:53:56;;;;;;;;;;;;;;;28.07;59.77;98807.09;1863;303;115634;-61
2023/10/12 10:56:35;;;;;;;;;;;;;;;28.68;58.68;98816.86;1777;301;115928;-60
2023/10/12 10:59:06;;;;;;;;;;;;;;;28.47;56.63;98818.92;1778;303;115779;-62
2023/10/12 11:01:35;;;;;;;;;;;;;;;27.23;53.30;98825.06;1760;304;185833;-61
2023/10/12 11:04:08;;;;;;;;;;;;;;;25.75;51.05;98826.85;1798;299;115736;-62
2023/10/12 11:06:37;;;;;;;;;;;;;;;27.11;50.97;98818.18;1808;308;186761;-58
2023/10/12 11:09:09;;;;;;;;;;;;;;;28.05;49.02;98822.23;1791;307;115764;-58
2023/10/12 11:11:38;;;;;;;;;;;;;;;27.21;47.75;98827.27;1802;299;115703;-60
2023/10/12 11:14:10;;;;;;;;;;;;;;;26.65;47.75;98832.21;1812;307;184761;-59
2023/10/12 11:16:43;;;;;;;;;;;;;;;26.13;46.99;98836.29;1826;307;115633;-62
2023/10/12 11:19:13;;;;;;;;;;;;;;;25.77;47.20;98832.07;1802;298;185477;-60
2023/10/12 11:21:57;;;;;;;;;;;;;;;27.36;47.20;98836.25;1817;307;115599;-60
2023/10/12 11:24:27;;;;;;;;;;;;;;;26.77;44.44;98833.50;1851;303;184539;-59
2023/10/12 11:26:56;;;;;;;;;;;;;;;26.59;45.31;98836.56;1776;300;115611;-62
2023/10/12 11:29:25;;;;;;;;;;;;;;;27.42;44.75;98836.67;1799;306;116154;-60
2023/10/12 11:32:08;;;;;;;;;;;;;;;27.66;43.94;98834.58;1852;309;184834;-59
2023/10/12 11:34:59;;;;;;;;;;;;;;;27.12;42.45;98832.40;1849;307;115633;-61
2023/10/12 11:37:29;;;;;;;;;;;;;;;28.44;42.40;98833.73;1809;308;188236;-60
2023/10/12 11:39:59;;;;;;;;;;;;;;;29.45;41.59;98847.10;1799;299;115728;-60
2023/10/12 11:42:28;;;;;;;;;;;;;;;29.66;39.68;98846.77;1783;309;185111;-59
2023/10/12 11:45:06;;;;;;;;;;;;;;;28.10;38.92;98854.98;1776;300;115600;-62
2023/10/12 11:47:41;;;;;;;;;;;;;;;26.53;38.37;98858.55;1863;303;116095;-62
2023/10/12 11:50:11;;;;;;;;;;;;;;;24.89;37.32;98862.14;1777;310;184391;-63
2023/10/12 11:52:40;;;;;;;;;;;;;;;23.47;36.90;98860.52;1832;299;116087;-63
2023/10/12 11:55:18;;;;;;;;;;;;;;;22.18;36.99;98859.60;1813;304;184557;-61
2023/10/12 11:57:59;;;;;;;;;;;;;;;21.30;37.31;98855.00;1769;300;115602;-61
2023/10/12 12:00:36;;;;;;;;;;;;;;;20.52;37.50;98861.00;1846;307;186157;-61
2023/10/12 12:03:08;;;;;;;;;;;;;;;20.12;37.93;98863.48;1810;299;115775;-61
2023/10/12 12:05:37;;;;;;;;;;;;;;;19.66;38.13;98871.86;1863;306;115826;-62
2023/10/12 12:08:15;;;;;;;;;;;;;;;19.12;38.53;98877.27;1769;309;184530;-62
2023/10/12 12:13:15;;;;;;;;;;;;;;;18.23;39.16;98895.56;1782;305;186334;-61
2023/10/12 12:15:44;;;;;;;;;;;;;;;17.89;39.64;98892.09;1763;304;115751;-61
2023/10/12 12:18:19;;;;;;;;;;;;;;;17.50;39.61;98901.01;1773;307;184890;-61
2023/10/12 12:20:48;;;;;;;;;;;;;;;17.13;40.08;98901.14;1792;304;115735;-57
2023/10/12 12:23:17;;;;;;;;;;;;;;;16.82;40.34;98901.88;1856;304;115813;-60
2023/10/12 12:25:46;;;;;;;;;;;;;;;16.61;40.71;98909.08;1813;303;184411;-60
2023/10/12 12:28:14;;;;;;;;;;;;;;;16.43;41.38;98904.87;1809;304;115639;-58
2023/10/12 12:30:46;;;;;;;;;;;;;;;16.31;41.49;98912.15;1838;304;185880;-61
2023/10/12 12:33:18;;;;;;;;;;;;;;;16.07;41.55;98912.45;1824;306;115725;-60
2023/10/12 12:35:47;;;;;;;;;;;;;;;15.72;42.07;98921.20;1818;307;116423;-55
2023/10/12 12:39:09;;;;;;;;;;;;;;;15.54;42.64;98921.80;1805;304;184500;-56
2023/10/12 12:41:38;;;;;;;;;;;;;;;15.74;43.67;98925.10;1791;304;115766;-67
2023/10/12 12:43:59;;;;;;;;;;;;;;;16.05;43.74;98918.05;1837;305;185066;-67
2023/10/12 12:46:30;;;;;;;;;;;;;;;16.20;43.85;98919.94;1801;304;116752;-62
2023/10/12 12:48:59;;;;;;;;;;;;;;;16.36;44.21;98921.05;1818;307;185761;-63
2023/10/12 12:51:27;;;;;;;;;;;;;;;16.38;44.48;98920.41;1818;307;115731;-62
2023/10/12 12:53:56;;;;;;;;;;;;;;;16.35;44.75;98925.04;1834;306;115605;-63
2023/10/12 12:56:24;;;;;;;;;;;;;;;16.46;45.32;98924.64;1790;304;185437;-63
2023/10/12 12:58:54;;;;;;;;;;;;;;;16.67;45.35;98920.51;1848;307;115783;-64
2023/10/12 13:01:23;;;;;;;;;;;;;;;16.68;45.30;98916.77;1803;305;184601;-63
2023/10/12 13:03:55;;;;;;;;;;;;;;;16.38;45.22;98905.39;1812;304;115619;-63
2023/10/12 13:06:24;;;;;;;;;;;;;;;16.04;45.71;98914.80;1796;308;184848;-63
2023/10/12 13:08:52;;;;;;;;;;;;;;;15.89;45.84;98923.52;1778;306;115590;-63
2023/10/12 13:11:21;;;;;;;;;;;;;;;15.67;46.08;98916.91;1802;307;115604;-64
2023/10/12 13:13:50;;;;;;;;;;;;;;;15.35;45.97;98909.47;1809;303;184527;-61
2023/10/12 13:16:19;;;;;;;;;;;;;;;15.07;46.44;98919.90;1788;304;115899;-62
2023/10/12 13:18:48;;;;;;;;;;;;;;;15.06;46.81;98917.55;1782;303;184492;-60
2023/10/12 13:21:22;;;;;;;;;;;;;;;15.06;47.00;98914.21;1759;320;116309;-58
2023/10/12 13:23:51;;;;;;;;;;;;;;;14.85;46.97;98924.39;1812;307;115609;-60
2023/10/12 13:26:22;;;;;;;;;;;;;;;14.62;47.26;98926.23;1827;303;185579;-58
2023/10/12 13:28:53;;;;;;;;;;;;;;;14.41;47.55;98931.09;1771;304;115594;-65
2023/10/12 13:31:26;;;;;;;;;;;;;;;14.23;47.65;98934.73;1784;305;184593;-61
2023/10/12 13:33:54;;;;;;;;;;;;;;;14.07;48.05;98931.66;1794;300;115913;-61
2023/10/12 13:36:23;;;;;;;;;;;;;;;14.03;48.38;98930.20;1789;305;184636;-67
2023/10/12 13:38:51;;;;;;;;;;;;;;;14.04;48.51;98933.52;1804;303;115863;-63
2023/10/12 13:41:20;;;;;;;;;;;;;;;13.96;48.98;98934.05;1781;307;116221;-57
2023/10/12 13:43:49;;;;;;;;;;;;;;;13.97;48.88;98934.69;1793;305;184838;-59
2023/10/12 13:46:17;;;;;;;;;;;;;;;13.81;49.50;98939.75;1821;299;115720;-66
2023/10/12 13:48:49;;;;;;;;;;;;;;;13.82;49.56;98943.55;1823;309;184693;-58
2023/10/12 13:51:20;;;;;;;;;;;;;;;13.87;49.73;98942.95;1810;306;115823;-58
2023/10/12 13:53:51;;;;;;;;;;;;;;;13.86;50.00;98944.98;1787;307;116636;-59
2023/10/12 13:56:23;;;;;;;;;;;;;;;13.81;50.21;98944.66;1819;309;184420;-57
2023/10/12 13:58:57;;;;;;;;;;;;;;;13.75;50.33;98938.63;1836;304;115586;-63
2023/10/12 14:01:33;;;;;;;;;;;;;;;13.70;50.67;98937.42;1799;308;185780;-61
2023/10/12 14:04:21;;;;;;;;;;;;;;;13.72;50.82;98937.41;1782;307;116164;-59
2023/10/12 14:06:52;;;;;;;;;;;;;;;13.72;51.15;98942.71;1785;305;186000;-64
2023/10/12 14:09:27;;;;;;;;;;;;;;;13.64;51.22;98946.70;1755;305;115608;-65
2023/10/12 14:11:56;;;;;;;;;;;;;;;13.63;51.61;98942.09;1795;308;115740;-60
2023/10/12 14:14:27;;;;;;;;;;;;;;;13.61;51.64;98944.98;1775;309;185454;-65
2023/10/12 14:16:59;;;;;;;;;;;;;;;13.58;51.89;98947.00;1770;306;115802;-61
2023/10/12 14:19:35;;;;;;;;;;;;;;;13.55;52.09;98941.59;1791;320;184724;-63
2023/10/12 14:22:07;;;;;;;;;;;;;;;13.42;52.32;98943.77;1779;1297;116326;-63
2023/10/12 14:24:42;;;;;;;;;;;;;;;13.34;52.51;98944.03;1772;305;185160;-61
2023/10/12 14:27:11;;;;;;;;;;;;;;;13.19;52.55;98948.55;1787;303;116124;-69
2023/10/12 14:29:39;;;;;;;;;;;;;;;13.04;53.11;98945.69;1795;308;116243;-61
2023/10/12 14:32:08;;;;;;;;;;;;;;;12.95;53.04;98954.05;1761;310;184782;-62
2023/10/12 14:34:38;;;;;;;;;;;;;;;12.89;53.19;98953.92;1760;300;116388;-61
2023/10/12 14:37:13;;;;;;;;;;;;;;;12.78;53.65;98955.52;1799;309;185684;-64
2023/10/12 14:39:42;;;;;;;;;;;;;;;12.71;54.02;98958.30;1781;304;115605;-65
2023/10/12 14:42:11;;;;;;;;;;;;;;;12.75;54.25;98965.85;1810;304;184961;-60
2023/10/12 14:44:43;;;;;;;;;;;;;;;12.79;54.44;98974.00;1751;310;115829;-61
2023/10/12 14:47:12;;;;;;;;;;;;;;;12.81;54.38;98983.69;1810;303;115737;-62
2023/10/12 14:49:41;;;;;;;;;;;;;;;12.81;54.57;98990.95;1775;303;185154;-64
2023/10/12 14:52:13;;;;;;;;;;;;;;;12.82;54.76;99001.91;1799;303;115694;-62
2023/10/12 14:54:43;;;;;;;;;;;;;;;12.81;54.93;98996.60;1752;308;184919;-62
2023/10/12 14:57:16;;;;;;;;;;;;;;;12.74;55.00;98996.53;1744;300;115912;-61
2023/10/12 14:59:48;;;;;;;;;;;;;;;12.68;55.14;99002.83;1795;351;115660;-60
2023/10/12 15:02:17;;;;;;;;;;;;;;;12.61;54.94;99002.62;1788;308;185587;-60
2023/10/12 15:04:46;;;;;;;;;;;;;;;12.50;55.40;99005.63;1782;303;115753;-61
2023/10/12 15:07:14;;;;;;;;;;;;;;;12.41;55.53;99008.50;1789;305;184396;-61
2023/10/12 15:09:48;;;;;;;;;;;;;;;12.24;55.45;99010.67;1789;307;116262;-61
2023/10/12 15:12:19;;;;;;;;;;;;;;;12.06;55.92;99027.20;1840;303;185092;-60
2023/10/12 15:14:50;;;;;;;;;;;;;;;11.92;55.94;99031.20;1792;305;115865;-60
2023/10/12 15:17:19;;;;;;;;;;;;;;;11.76;56.03;99037.80;1778;305;115825;-61
2023/10/12 15:19:49;;;;;;;;;;;;;;;11.64;56.24;99038.91;1753;305;184720;-61
2023/10/12 15:22:20;;;;;;;;;;;;;;;11.54;56.38;99041.42;1775;307;116146;-60